Lansdowne House, Canada
Current Conditions -  °F | °C
As of 2:00 PM on Wednesday 17 Dec 2014 (Local Time) from CYLH Reporting Station
Clear Clear  
Wind Chill: -9°   Ceiling: Unl
Heat Index:   Visibility: 9mi
Dew Point:   Wind: 7mph
Humidity: 92%   Direction: 250°WSW
Pressure: 30.32"   Gusts: NA
Location:  52.21°N, 87.89°W
Report Text: CYLH 171900Z AUTO 25006KT 9SM CLR M16/M17 A3032 RMK SLP297
Loading
Personal Weather Stations






























Interactive Weather Map New forecast layout! Learn more

10-Day Weather Forecast

Advertisements
Track Severe Weather on mobile